Aérodrome :
LOGIN :

S'inscrire | Disclaimer

   EN    FR    IT 

 










Légende :    VFR   VFR Marginal   IFR   IFR Intensif   IFR Très Intensif
Visi : 
Plafond : 
>= 8 km
>= 3000ft
5 à 8 km
1000 à 3000 ft
1500m à 5 km
500 à 1000 ft
800 à 1500m
200 à 500 ft
< 800m
< 200 ft
Symboles :   Orages  Brouillard  Fortes neiges  Fortes précipitations  Vent > 20 kt
SIGMETs :   Divers  Orages  Givrage  Turbulence  Onde Orograph.  Cendres Volcan.






- Altitude de l'aérodrome : 44 ft
- Code IATA : SOU


EGHI - Southampton

DERNIER METAR :
  • 251520Z 26014KT 240V300 7000 SHRA SCT016 BKN023 05/03 Q0999 RESHGR

METARs EXPIRÉS :
  • 251450Z 24006KT 220V280 9999 VCSH SCT030 08/03 Q0999
  • 251420Z 25008KT 220V280 9999 -SHRA SCT030 07/03 Q0999
  • 251350Z 27010KT 230V300 9999 -SHRA SCT034 08/01 Q1000
  • 251320Z 26009KT 230V290 9999 SCT030 09/02 Q1000
  • 251250Z 26011KT 220V300 9999 SCT027 08/02 Q1001

TAF TAF EGHI
Valide du 25 à 15h jusqu'au 25 à 23h UTC


251402Z 2515/2523 26010KT 9999 SCT025
TEMPO 2515/2520 27016G26KT 7000 SHRA
PROB30
TEMPO 2515/2520 3000 +SHRA SHGS BKN010 BKN020CB
PROB30
TEMPO 2520/2523 27016G26KT 4000 SHRASN BKN010
ATIS : +44 23 8062 7103



MET'MAP, la Météo Aéronautique d'un coup d'oeil ! - Copyright ORBIFLY Décembre 2007 - Disclaimer

ORBIFLY MET'MAP TEAM :

Programmation & Développement : Alexandra Zaïnal
Sur une idée originale de : Baudouin d'Aumeries
Assistance à la programmation : Marc-Olivier Méhu
Soutien technique & logistique : Manuel Goepfert

Contact : metmap@orbifly.com




SOURCES & CREDITS :

   NOAA